ADDS METAR Data INFO
IDs: Format: Raw Decoded Include TAF

Data at: 0211 UTC 17 Aug 2018

PASM 170202Z AUTO 28009KT 10SM SCT043 16/07 A2998 RMK AO2 SLP170 T01610072
PASM 170102Z AUTO 30007KT 10SM SCT070 15/06 A2999 RMK AO2 SLP172 T01500061
PASM 170002Z AUTO 24008KT 10SM FEW046 SCT060 14/08 A2999 RMK AO2 SLP175 T01440083 10156 20117 58004
PASM 162302Z AUTO 26006KT 10SM CLR 15/08 A2999 RMK AO2 SLP174 T01500083
PASM 162202Z AUTO 25006KT 10SM CLR 14/08 A3000 RMK AO2 SLP176 T01390083
PASM 162116Z AUTO 23005KT 10SM SCT019 13/08 A3001 RMK AO2
PASM 162102Z AUTO 24007KT 10SM SCT016 BKN023 14/09 A3001 RMK AO2
PASM 162002Z AUTO VRB03KT 10SM CLR 12/08 A3001 RMK AO2 SLP178 T01220078
PASM 161902Z AUTO 00000KT 10SM CLR 12/08 A3000 RMK AO2 SLP177 T01170078
PASM 161802Z AUTO 00000KT 10SM CLR 11/08 A3000 RMK AO2 SLP177 T01060083 10106 20072 53003
PASM 161702Z AUTO 00000KT 10SM CLR 08/07 A3000 RMK AO2 SLP176 T00830072
PASM 161602Z AUTO 00000KT 10SM CLR 08/07 A2999 RMK AO2 SLP174 T00830067
PASM 161502Z AUTO 00000KT 10SM BKN060 09/07 A2999 RMK AO2 SLP172 T00890072 55001
PASM 161402Z AUTO 00000KT 10SM OVC060 08/07 A2999 RMK AO2 SLP172 T00830067
PASM 161302Z AUTO 00000KT 10SM OVC060 08/07 A2999 RMK AO2 SLP173 T00780072
PASM 161202Z AUTO 04003KT 10SM FEW060 07/07 A2999 RMK AO2 SLP172 60000 T00720067 10128 20072 51004
PASM 161102Z AUTO 00000KT 10SM BKN065 08/07 A2999 RMK AO2 SLP173 T00830072
PASM 161002Z AUTO 00000KT 10SM CLR 08/07 A2999 RMK AO2 SLP172 T00830072
PASM 160902Z AUTO 02004KT 10SM OVC060 09/08 A2998 RMK AO2 SLP172 60000 T00940078 51008
PASM 160802Z AUTO 34004KT 10SM OVC047 11/09 A2998 RMK AO2 RAE0709 SLP169 P0000 T01110089 401110111
PASM 160702Z AUTO 00000KT 10SM -RA BKN034 BKN041 OVC055 11/09 A2997 RMK AO2 RAB0641 SLP167 P0000 T01110089
PASM 160602Z AUTO 26004KT 10SM FEW065 13/08 A2996 RMK AO2 SLP164 T01280083 10150 20128 53002
PASM 160502Z AUTO 32003KT 10SM FEW065 13/09 A2995 RMK AO2 SLP161 T01280089
PASM 160402Z AUTO 24007KT 10SM BKN040 OVC060 14/07 A2995 RMK AO2 SLP160 T01440067
PASM 160302Z AUTO 22005KT 10SM BKN046 BKN055 14/06 A2995 RMK AO2 SLP159 T01440061 56005
PASM 160202Z AUTO 24004KT 10SM BKN037 14/06 A2995 RMK AO2 SLP159 T01440061
PASM 160102Z AUTO 19004KT 10SM SCT050 13/06 A2995 RMK AO2 SLP161 T01330061
PASM 160002Z AUTO 21004KT 10SM SCT041 14/07 A2996 RMK AO2 SLP162 T01390067 10139 20083 57001
PASM 152302Z AUTO VRB04KT 10SM FEW040 13/07 A2996 RMK AO2 SLP164 T01330072
PASM 152202Z AUTO 00000KT 10SM CLR 12/06 A2997 RMK AO2 SLP166 T01220056
PASM 152109Z AUTO 08003KT 10SM BKN031 11/05 A2996 RMK AO2
PASM 152102Z AUTO 00000KT 10SM BKN029 11/06 A2996 RMK AO2 SLP164 T01110061 51009
PASM 152054Z AUTO 00000KT 10SM BKN029 11/06 A2996 RMK AO2
PASM 152020Z AUTO 19004KT 10SM SCT022 10/08 A2997 RMK AO2
PASM 152013Z AUTO 17003KT 10SM BKN022 11/07 A2997 RMK AO2
PASM 152002Z AUTO VRB03KT 10SM SCT022 11/08 A2997 RMK AO2 SLP165 T01110078
PASM 151902Z AUTO 06003KT 10SM CLR 09/07 A2996 RMK AO2 SLP164 T00940067
PASM 151802Z AUTO 03003KT 10SM CLR 08/07 A2995 RMK AO2 SLP160 T00830067 10083 20061 53003
PASM 151702Z AUTO 00000KT 10SM CLR 08/07 A2994 RMK AO2 SLP155 T00780067
PASM 151602Z AUTO 00000KT 10SM OVC050 07/06 A2993 RMK AO2 SLP154 T00720056
PASM 151502Z AUTO 00000KT 10SM CLR 07/04 A2993 RMK AO2 SLP151 60001 T00720044 51003
PASM 151422Z AUTO 13003KT 10SM FEW018 07/06 A2993 RMK AO2